Time;durP1;ratioP1;P1;durP2;ratioP2;P2;SDS_P1;SDS_P2;PMS_P1;PMS_P2;Temp;Humidity;BMP_temperature;BMP_pressure;BME280_temperature;BME280_humidity;BME280_pressure;Samples;Min_cycle;Max_cycle;Signal;HPM_P1;HPM_P2
2023/06/06 00:00:34;;;;;;;4.90;1.50;;;;;;;8.96;100.00;101622.19;105655;1254;60349;-43
2023/06/06 00:03:02;;;;;;;4.00;1.70;;;;;;;8.94;100.00;101624.77;105684;1258;72359;-44
2023/06/06 00:05:31;;;;;;;2.10;1.60;;;;;;;8.92;100.00;101626.64;105675;1254;64027;-44
2023/06/06 00:07:59;;;;;;;9.30;2.00;;;;;;;8.87;100.00;101628.16;105791;1254;72610;-44
2023/06/06 00:10:26;;;;;;;6.00;2.00;;;;;;;8.79;100.00;101630.17;105758;1254;60443;-44
2023/06/06 00:12:54;;;;;;;5.30;2.00;;;;;;;8.73;100.00;101624.11;105638;1259;60463;-43
2023/06/06 00:15:24;;;;;;;8.00;1.90;;;;;;;8.69;100.00;101627.50;105712;1254;73125;-43
2023/06/06 00:17:55;;;;;;;2.20;2.00;;;;;;;8.71;100.00;101618.92;105690;1259;64005;-44
2023/06/06 00:20:24;;;;;;;3.50;1.70;;;;;;;8.83;100.00;101616.94;105685;1259;71395;-44
2023/06/06 00:22:56;;;;;;;2.10;1.70;;;;;;;9.02;100.00;101610.36;105669;1254;60418;-43
2023/06/06 00:25:24;;;;;;;2.50;1.50;;;;;;;9.26;100.00;101607.91;105671;1256;60411;-43
2023/06/06 00:27:52;;;;;;;6.10;2.00;;;;;;;9.42;100.00;101601.45;105631;1253;71899;-43
2023/06/06 00:30:20;;;;;;;2.20;1.80;;;;;;;9.49;100.00;101597.88;105655;1257;65227;-43
2023/06/06 00:32:47;;;;;;;5.70;1.70;;;;;;;9.51;100.00;101597.02;105677;1256;71888;-44
2023/06/06 00:35:15;;;;;;;7.20;2.10;;;;;;;9.48;100.00;101594.42;105638;1258;60773;-43
2023/06/06 00:37:44;;;;;;;3.50;1.70;;;;;;;9.45;100.00;101593.02;105658;1254;61668;-44
2023/06/06 00:40:13;;;;;;;3.50;1.90;;;;;;;9.44;100.00;101592.15;105670;1258;73076;-43
2023/06/06 00:42:41;;;;;;;4.20;1.80;;;;;;;9.43;100.00;101593.19;105673;1259;63968;-44
2023/06/06 00:45:09;;;;;;;2.40;1.80;;;;;;;9.38;100.00;101590.23;105651;1254;71432;-43
2023/06/06 00:47:37;;;;;;;1.80;1.40;;;;;;;9.33;100.00;101593.14;105698;1254;60428;-43
2023/06/06 00:50:06;;;;;;;4.50;1.60;;;;;;;9.26;100.00;101593.45;105645;1254;60482;-44
2023/06/06 00:52:35;;;;;;;1.70;1.50;;;;;;;9.14;100.00;101592.35;105716;1259;73795;-43
2023/06/06 00:55:02;;;;;;;3.80;1.80;;;;;;;9.02;100.00;101596.24;105677;1259;63940;-43
2023/06/06 00:57:30;;;;;;;5.70;1.70;;;;;;;8.92;100.00;101602.71;105712;1254;71719;-43
2023/06/06 00:59:58;;;;;;;2.50;1.80;;;;;;;8.84;100.00;101605.94;105644;1260;61729;-44
2023/06/06 01:02:25;;;;;;;1.50;1.40;;;;;;;8.77;100.00;101604.34;105703;1259;60395;-43
2023/06/06 01:04:53;;;;;;;2.90;1.70;;;;;;;8.71;100.00;101604.98;105673;1254;73748;-44
2023/06/06 01:07:20;;;;;;;5.50;2.20;;;;;;;8.67;100.00;101603.73;105648;1259;65182;-43
2023/06/06 01:09:48;;;;;;;5.60;1.50;;;;;;;8.67;100.00;101604.60;105673;1254;71757;-44
2023/06/06 01:12:40;;;;;;;1.90;1.70;;;;;;;8.66;100.00;101607.52;105654;1255;60430;-44
2023/06/06 01:15:10;;;;;;;3.30;1.80;;;;;;;8.62;100.00;101606.64;105673;1258;60356;-44
2023/06/06 01:17:38;;;;;;;4.30;1.70;;;;;;;8.61;100.00;101605.60;105683;1254;72663;-42
2023/06/06 01:20:06;;;;;;;3.90;1.50;;;;;;;8.64;100.00;101601.15;105746;1254;65330;-42
2023/06/06 01:22:35;;;;;;;2.00;1.80;;;;;;;8.75;100.00;101601.23;105690;1254;72648;-42
2023/06/06 01:25:06;;;;;;;2.90;1.50;;;;;;;8.79;100.00;101602.13;105677;1254;61642;-42
2023/06/06 01:27:34;;;;;;;2.30;1.70;;;;;;;8.82;100.00;101604.02;105668;1254;60435;-42
2023/06/06 01:30:03;;;;;;;1.90;1.10;;;;;;;8.85;100.00;101601.13;105712;1254;73800;-42
2023/06/06 01:32:41;;;;;;;6.90;1.70;;;;;;;8.89;100.00;101601.48;105731;1258;63965;-42
2023/06/06 01:35:27;;;;;;;4.40;1.40;;;;;;;8.92;100.00;101602.72;105700;1259;71769;-43
2023/06/06 01:38:12;;;;;;;1.90;1.60;;;;;;;8.97;100.00;101603.62;105686;1254;60435;-44
2023/06/06 01:40:44;;;;;;;4.00;1.80;;;;;;;9.01;100.00;101606.23;105650;1259;60358;-43
2023/06/06 01:43:12;;;;;;;3.30;1.60;;;;;;;9.04;100.00;101610.37;105689;1254;73841;-44
2023/06/06 01:45:39;;;;;;;7.00;1.50;;;;;;;9.08;100.00;101610.40;105677;1254;65340;-44
2023/06/06 01:48:07;;;;;;;1.70;1.50;;;;;;;9.12;100.00;101609.91;105666;1259;72669;-43
2023/06/06 01:50:35;;;;;;;3.70;1.70;;;;;;;9.20;100.00;101609.61;105692;1254;60534;-43
2023/06/06 01:53:05;;;;;;;4.10;1.30;;;;;;;9.25;100.00;101614.46;105730;1254;60342;-43
2023/06/06 01:55:36;;;;;;;5.80;1.40;;;;;;;9.26;100.00;101614.12;105503;1254;72626;-44
2023/06/06 01:58:04;;;;;;;3.70;1.20;;;;;;;9.28;100.00;101621.20;105486;1254;65115;-44
2023/06/06 02:00:33;;;;;;;1.80;1.30;;;;;;;9.28;100.00;101617.58;105714;1259;71580;-44
2023/06/06 02:03:01;;;;;;;3.30;1.10;;;;;;;9.30;100.00;101617.08;105644;1259;60530;-44
2023/06/06 02:05:29;;;;;;;2.40;1.30;;;;;;;9.33;100.00;101619.48;105673;1254;60400;-43
2023/06/06 02:07:56;;;;;;;2.10;1.40;;;;;;;9.37;100.00;101619.70;105644;1258;73793;-44
2023/06/06 02:10:24;;;;;;;5.10;1.70;;;;;;;9.43;100.00;101617.13;105660;1254;65149;-44
2023/06/06 02:12:51;;;;;;;2.70;1.50;;;;;;;9.53;100.00;101614.94;105672;1254;71654;-44
2023/06/06 02:15:19;;;;;;;4.60;1.20;;;;;;;9.66;100.00;101615.86;105664;1255;60530;-45
2023/06/06 02:17:48;;;;;;;4.00;1.30;;;;;;;9.80;100.00;101617.30;105658;1258;60332;-43
2023/06/06 02:20:18;;;;;;;4.10;1.50;;;;;;;9.95;100.00;101617.50;105698;1259;73831;-44
2023/06/06 02:22:45;;;;;;;3.60;1.10;;;;;;;10.07;100.00;101616.16;105668;1259;64029;-44
2023/06/06 02:25:13;;;;;;;4.70;1.30;;;;;;;10.19;100.00;101611.34;105693;1254;72776;-44
2023/06/06 02:27:44;;;;;;;2.70;1.30;;;;;;;10.29;100.00;101612.23;105702;1259;60406;-44
2023/06/06 02:30:13;;;;;;;1.10;1.10;;;;;;;10.37;100.00;101616.38;105689;1259;60386;-43
2023/06/06 02:32:41;;;;;;;3.70;1.70;;;;;;;10.42;100.00;101617.96;105659;1254;72623;-43
2023/06/06 02:35:09;;;;;;;1.40;1.30;;;;;;;10.44;100.00;101625.20;105683;1258;63907;-43
2023/06/06 02:37:38;;;;;;;2.40;1.30;;;;;;;10.46;100.00;101627.45;105688;1254;72626;-43
2023/06/06 02:40:10;;;;;;;2.90;1.40;;;;;;;10.48;100.00;101626.42;105723;1254;61651;-44
2023/06/06 02:42:38;;;;;;;1.30;1.10;;;;;;;10.50;100.00;101625.21;105738;1259;60431;-48
2023/06/06 02:45:08;;;;;;;6.60;1.60;;;;;;;10.53;100.00;101622.98;105700;1254;73893;-48
2023/06/06 02:47:36;;;;;;;4.50;1.20;;;;;;;10.56;100.00;101621.42;105717;1254;65213;-44
2023/06/06 02:50:05;;;;;;;2.00;1.20;;;;;;;10.60;100.00;101623.48;105711;1254;71464;-43
2023/06/06 02:52:33;;;;;;;5.80;0.80;;;;;;;10.65;100.00;101621.77;105709;1254;60698;-50
2023/06/06 02:55:00;;;;;;;1.70;1.20;;;;;;;10.72;100.00;101619.17;105746;1258;60462;-45
2023/06/06 02:57:30;;;;;;;2.40;1.20;;;;;;;10.77;100.00;101620.39;105663;1259;71773;-48
2023/06/06 03:00:01;;;;;;;2.30;1.40;;;;;;;10.83;100.00;101621.58;105684;1258;63632;-44
2023/06/06 03:02:29;;;;;;;7.00;1.10;;;;;;;10.90;100.00;101624.52;105714;1254;71749;-44
2023/06/06 03:04:57;;;;;;;5.60;1.20;;;;;;;10.97;100.00;101615.70;105657;1259;60527;-43
2023/06/06 03:07:26;;;;;;;2.30;1.20;;;;;;;11.06;100.00;101612.23;105698;1259;60421;-43
2023/06/06 03:09:54;;;;;;;1.40;1.20;;;;;;;11.14;100.00;101613.41;105711;1254;72581;-43
2023/06/06 03:12:24;;;;;;;11.40;1.70;;;;;;;11.23;100.00;101612.88;105736;1254;65259;-44
2023/06/06 03:14:52;;;;;;;3.90;1.30;;;;;;;11.34;100.00;101614.92;105698;1254;72685;-45
2023/06/06 03:17:28;;;;;;;;;;;;;;;11.47;100.00;101615.05;105691;1259;60546;-43
2023/06/06 03:19:56;;;;;;;3.20;1.30;;;;;;;11.60;100.00;101610.16;105709;1254;60597;-42
2023/06/06 03:22:24;;;;;;;6.40;1.30;;;;;;;11.72;100.00;101611.48;105735;1254;72655;-43
2023/06/06 03:24:52;;;;;;;3.10;1.30;;;;;;;11.86;100.00;101612.10;105679;1254;65261;-42
2023/06/06 03:27:20;;;;;;;2.50;1.30;;;;;;;12.01;100.00;101610.84;105637;1259;71395;-43
2023/06/06 03:29:47;;;;;;;4.60;1.60;;;;;;;12.16;100.00;101614.55;105671;1259;60479;-42
2023/06/06 03:32:15;;;;;;;2.10;1.60;;;;;;;12.31;100.00;101617.74;105735;1258;60348;-43
2023/06/06 03:34:44;;;;;;;2.20;1.30;;;;;;;12.48;100.00;101620.92;105781;1255;72773;-43
2023/06/06 03:37:12;;;;;;;4.60;1.60;;;;;;;12.62;100.00;101628.77;105726;1254;65295;-43
2023/06/06 03:39:42;;;;;;;6.40;1.40;;;;;;;12.74;100.00;101633.15;105679;1254;71716;-43
2023/06/06 03:42:09;;;;;;;4.10;1.40;;;;;;;12.88;100.00;101642.05;105720;1254;60559;-44
2023/06/06 03:44:38;;;;;;;9.20;1.70;;;;;;;13.11;100.00;101647.89;105730;1259;60428;-43
2023/06/06 03:47:06;;;;;;;5.00;1.60;;;;;;;13.46;100.00;101656.39;105684;1259;73914;-43
2023/06/06 03:49:36;;;;;;;3.40;1.80;;;;;;;13.87;100.00;101666.33;105688;1259;65176;-43
2023/06/06 03:52:05;;;;;;;3.80;1.40;;;;;;;14.24;100.00;101680.40;105675;1254;71522;-43
2023/06/06 03:54:36;;;;;;;2.60;1.50;;;;;;;14.53;100.00;101703.60;105487;1257;333255;-43
2023/06/06 03:59:25;;;;;;;5.50;2.10;;;;;;;14.96;100.00;101811.22;102770;1290;600188;-44
2023/06/06 04:01:53;;;;;;;4.80;1.60;;;;;;;15.14;100.00;101862.75;104840;1269;60065;-44
2023/06/06 04:04:24;;;;;;;2.20;1.40;;;;;;;15.40;100.00;101930.52;104828;1268;60026;-44
2023/06/06 04:06:52;;;;;;;3.60;1.50;;;;;;;15.70;100.00;101984.38;104894;1265;70989;-43
2023/06/06 04:09:20;;;;;;;4.20;1.30;;;;;;;16.01;100.00;102015.56;104841;1266;64216;-44
2023/06/06 04:11:48;;;;;;;4.80;1.40;;;;;;;16.37;100.00;102002.94;104908;1266;71460;-44
2023/06/06 04:14:15;;;;;;;4.20;1.40;;;;;;;16.77;100.00;101947.09;104996;1264;59947;-44
2023/06/06 04:16:43;;;;;;;6.30;1.20;;;;;;;17.20;100.00;101803.02;105144;1269;59314;-44
2023/06/06 04:19:11;;;;;;;3.90;1.60;;;;;;;17.59;100.00;101525.23;104889;1269;72216;-44
2023/06/06 04:21:39;;;;;;;8.70;1.50;;;;;;;17.86;100.00;101170.88;105171;1269;65155;-44
2023/06/06 04:24:06;;;;;;;1.40;1.30;;;;;;;18.07;100.00;101008.75;104845;1270;73601;-44
2023/06/06 04:26:34;;;;;;;2.20;1.40;;;;;;;18.29;100.00;101035.14;104919;1269;60020;-44
2023/06/06 04:29:03;;;;;;;3.00;1.70;;;;;;;18.44;100.00;101111.19;105146;1269;59657;-44
2023/06/06 04:31:31;;;;;;;11.30;1.50;;;;;;;18.54;100.00;101163.54;105195;1262;71836;-44
2023/06/06 04:34:03;;;;;;;2.80;1.50;;;;;;;18.61;100.00;101199.45;105143;1263;65220;-44
2023/06/06 04:36:33;;;;;;;4.80;1.40;;;;;;;18.72;100.00;101216.51;105226;1264;71321;-44
2023/06/06 04:39:05;;;;;;;6.40;1.70;;;;;;;18.86;100.00;101235.52;105854;1252;60090;-42
2023/06/06 04:41:34;;;;;;;4.90;1.60;;;;;;;18.96;100.00;101277.42;105863;1251;59614;-43
2023/06/06 04:44:06;;;;;;;4.20;1.80;;;;;;;19.01;100.00;101317.85;105943;1251;73046;-43
2023/06/06 04:46:36;;;;;;;10.30;1.80;;;;;;;19.05;100.00;101339.02;105984;1257;65260;-43
2023/06/06 04:49:04;;;;;;;6.60;2.10;;;;;;;19.08;100.00;101350.94;105871;1251;72657;-43
2023/06/06 04:51:32;;;;;;;5.70;1.90;;;;;;;19.15;100.00;101354.52;105687;1257;59641;-43
2023/06/06 04:54:01;;;;;;;8.20;2.20;;;;;;;19.22;100.00;101368.59;105872;1253;59564;-43
2023/06/06 04:56:29;;;;;;;9.10;2.20;;;;;;;19.29;100.00;101380.20;105961;1253;73002;-43
2023/06/06 04:59:09;;;;;;;4.40;2.20;;;;;;;19.37;100.00;101385.86;105809;1256;65292;-45
2023/06/06 05:01:37;;;;;;;2.40;1.90;;;;;;;19.40;100.00;101393.78;105563;1254;71411;-44
2023/06/06 05:04:06;;;;;;;5.30;2.00;;;;;;;19.38;100.00;101402.23;105803;1256;59672;-45
2023/06/06 05:06:34;;;;;;;3.40;2.00;;;;;;;19.40;100.00;101418.63;105849;1256;59695;-46
2023/06/06 05:09:04;;;;;;;4.00;2.00;;;;;;;19.48;100.00;101429.16;105886;1256;73021;-44
2023/06/06 05:11:32;;;;;;;5.20;1.60;;;;;;;19.61;100.00;101430.71;105989;1256;65174;-44
2023/06/06 05:14:00;;;;;;;1.80;1.70;;;;;;;19.86;100.00;101438.45;105927;1254;71427;-44
2023/06/06 05:16:27;;;;;;;6.10;1.70;;;;;;;20.14;100.00;101434.17;105785;1254;59726;-43
2023/06/06 05:18:55;;;;;;;8.10;1.60;;;;;;;20.35;87.22;101413.45;105790;1257;59534;-44
2023/06/06 05:21:23;;;;;;;3.50;1.30;;;;;;;20.34;78.07;101427.87;105758;1251;73019;-44
2023/06/06 05:23:50;;;;;;;4.70;1.70;;;;;;;20.29;75.56;101434.38;105900;1256;65330;-44
2023/06/06 05:26:18;;;;;;;1.80;1.70;;;;;;;20.24;69.94;101403.77;105865;1254;71410;-43
2023/06/06 05:28:46;;;;;;;2.40;1.40;;;;;;;20.20;68.76;101422.67;105831;1251;60017;-44
2023/06/06 05:31:16;;;;;;;7.20;2.00;;;;;;;20.28;68.68;101443.00;105769;1251;59528;-44
2023/06/06 05:33:45;;;;;;;8.50;1.80;;;;;;;20.45;67.59;101434.73;105910;1251;72961;-44
2023/06/06 05:36:13;;;;;;;7.70;1.90;;;;;;;20.44;63.95;101371.34;105787;1257;65495;-44
2023/06/06 05:38:41;;;;;;;7.10;2.10;;;;;;;20.45;63.23;101399.48;105822;1254;71522;-44
2023/06/06 05:41:08;;;;;;;7.60;2.10;;;;;;;20.51;62.65;101402.73;105864;1257;59671;-44
2023/06/06 05:43:36;;;;;;;11.90;2.10;;;;;;;20.50;61.40;101388.09;105791;1257;59593;-44
2023/06/06 05:46:04;;;;;;;7.90;1.40;;;;;;;20.58;61.47;101408.38;105801;1257;73067;-44
2023/06/06 05:48:31;;;;;;;2.10;1.40;;;;;;;20.79;59.91;101358.86;105838;1257;66397;-44
2023/06/06 05:50:59;;;;;;;2.30;1.20;;;;;;;21.12;58.51;101317.69;105781;1254;71381;-44
2023/06/06 05:53:28;;;;;;;2.10;1.30;;;;;;;21.44;55.94;101211.98;105765;1254;59720;-44
2023/06/06 05:55:56;;;;;;;2.20;1.20;;;;;;;21.60;54.55;101180.77;105956;1256;60075;-44
2023/06/06 05:58:23;;;;;;;1.80;1.30;;;;;;;21.66;52.42;101060.92;105783;1254;72331;-44
2023/06/06 06:00:51;;;;;;;4.90;1.40;;;;;;;21.72;51.70;101061.30;105797;1251;65134;-44
2023/06/06 06:03:18;;;;;;;4.40;1.40;;;;;;;21.74;50.84;101022.21;105770;1254;71439;-44
2023/06/06 06:05:47;;;;;;;7.10;1.10;;;;;;;21.81;49.84;100955.74;105754;1251;60037;-44
2023/06/06 06:08:15;;;;;;;3.40;0.90;;;;;;;21.83;49.77;101004.46;105790;1256;59531;-44
2023/06/06 06:10:43;;;;;;;2.80;1.20;;;;;;;21.96;48.74;100909.41;105794;1251;72970;-44
2023/06/06 06:13:10;;;;;;;1.10;1.00;;;;;;;22.02;47.12;100771.31;105786;1251;63870;-44
2023/06/06 06:15:38;;;;;;;2.70;1.20;;;;;;;21.94;46.70;100732.95;105763;1251;73074;-44
2023/06/06 06:18:06;;;;;;;6.00;1.30;;;;;;;21.85;47.39;100827.47;106043;1251;59695;-44
2023/06/06 06:20:34;;;;;;;2.30;1.10;;;;;;;21.81;45.46;100666.11;105814;1256;60316;-44
2023/06/06 06:23:02;;;;;;;2.80;1.20;;;;;;;21.71;45.91;100706.41;105808;1256;73622;-44
2023/06/06 06:25:29;;;;;;;3.20;1.10;;;;;;;21.59;45.56;100705.58;105910;1251;65282;-44
2023/06/06 06:27:58;;;;;;;4.00;1.20;;;;;;;21.44;45.93;100766.30;105934;1251;72722;-44
2023/06/06 06:30:26;;;;;;;5.00;1.20;;;;;;;21.46;46.45;100843.59;105782;1257;60083;-44
2023/06/06 06:32:53;;;;;;;2.70;1.10;;;;;;;21.56;46.72;100918.36;105917;1251;59629;-44
2023/06/06 06:35:21;;;;;;;2.70;1.30;;;;;;;21.64;45.64;100777.23;105782;1251;71836;-44
2023/06/06 06:37:50;;;;;;;6.70;1.00;;;;;;;21.70;44.93;100692.45;105913;1251;65214;-44
2023/06/06 06:40:17;;;;;;;4.10;1.30;;;;;;;21.74;43.77;100578.77;105936;1251;70774;-44
2023/06/06 06:42:46;;;;;;;2.40;1.10;;;;;;;21.79;43.42;100514.86;105872;1257;59663;-44
2023/06/06 06:45:28;;;;;;;6.00;1.30;;;;;;;21.75;43.10;100498.63;105795;1256;60116;-43
2023/06/06 06:47:58;;;;;;;9.20;1.30;;;;;;;21.75;43.56;100559.72;105782;1251;71761;-43
2023/06/06 06:50:27;;;;;;;8.10;1.70;;;;;;;21.88;43.42;100555.08;105812;1252;63947;-44
2023/06/06 06:52:56;;;;;;;2.40;1.30;;;;;;;21.94;43.00;100494.04;105796;1251;72608;-44
2023/06/06 06:55:25;;;;;;;11.10;1.80;;;;;;;21.96;42.53;100439.67;105949;1254;60443;-44
2023/06/06 06:57:53;;;;;;;12.50;1.60;;;;;;;21.99;42.59;100461.60;105949;1251;59934;-44
2023/06/06 07:00:23;;;;;;;5.80;1.60;;;;;;;22.11;42.98;100495.09;106022;1251;73003;-44
2023/06/06 07:02:54;;;;;;;6.70;2.20;;;;;;;22.31;42.26;100455.41;105754;1251;65256;-44
2023/06/06 07:05:22;;;;;;;10.30;1.50;;;;;;;22.37;41.85;100356.58;105943;1254;71459;-44
2023/06/06 07:07:52;;;;;;;2.40;1.40;;;;;;;22.51;41.93;100410.29;105846;1257;59721;-44
2023/06/06 07:10:24;;;;;;;2.60;1.20;;;;;;;22.61;41.39;100322.61;105918;1256;59643;-44
2023/06/06 07:12:52;;;;;;;10.10;1.50;;;;;;;22.73;41.15;100290.10;105837;1251;72935;-44
2023/06/06 07:15:24;;;;;;;4.60;1.30;;;;;;;22.89;41.74;100390.96;105859;1251;64088;-45
2023/06/06 07:17:53;;;;;;;3.60;1.30;;;;;;;23.03;40.77;100283.52;105798;1257;71453;-46
2023/06/06 07:20:23;;;;;;;3.00;1.00;;;;;;;23.13;41.09;100295.67;106021;1256;59669;-47
2023/06/06 07:22:56;;;;;;;2.80;1.10;;;;;;;23.25;40.28;100229.33;105845;1253;59595;-42
2023/06/06 07:25:24;;;;;;;8.60;1.30;;;;;;;23.23;39.08;100048.71;105890;1256;73074;-43
2023/06/06 07:27:52;;;;;;;6.10;1.50;;;;;;;23.27;39.76;100105.94;105825;1257;65344;-44
2023/06/06 07:30:20;;;;;;;4.10;1.30;;;;;;;23.37;40.05;100163.11;105785;1257;72619;-46
2023/06/06 07:32:49;;;;;;;4.90;1.20;;;;;;;23.57;40.57;100256.36;105933;1257;59719;-44
2023/06/06 07:35:21;;;;;;;5.70;1.40;;;;;;;23.79;40.82;100283.56;105875;1257;59701;-44
2023/06/06 07:37:48;;;;;;;5.50;1.20;;;;;;;23.98;39.77;100165.08;105800;1251;72679;-44
2023/06/06 07:40:17;;;;;;;5.80;1.30;;;;;;;24.03;39.85;100172.48;105815;1257;64022;-45
2023/06/06 07:42:46;;;;;;;5.90;1.60;;;;;;;24.14;39.24;100092.64;109605;1251;71406;-43
2023/06/06 07:45:13;;;;;;;4.00;1.40;;;;;;;24.24;38.81;100018.14;109628;1253;60472;-43
2023/06/06 07:47:41;;;;;;;7.50;1.60;;;;;;;24.31;38.92;100064.28;109615;1251;58948;-43
2023/06/06 07:50:09;;;;;;;7.30;1.60;;;;;;;24.41;37.98;99922.48;109599;1251;71760;-43
2023/06/06 07:52:43;;;;;;;4.80;1.30;;;;;;;24.50;37.65;99868.25;109611;1251;65322;-43
2023/06/06 07:55:14;;;;;;;3.80;1.50;;;;;;;24.61;38.28;99943.14;109631;1251;72818;-43
2023/06/06 07:57:41;;;;;;;6.60;1.50;;;;;;;24.64;37.90;99888.56;109578;1251;58783;-43
2023/06/06 08:00:10;;;;;;;9.30;1.70;;;;;;;24.66;37.36;99838.08;109607;1251;60006;-43
2023/06/06 08:02:42;;;;;;;10.60;1.80;;;;;;;24.72;36.59;99706.03;109555;1251;73503;-43
2023/06/06 08:08:16;;;;;;;16.70;1.80;;;;;;;24.67;36.74;99686.92;102579;1296;600339;-49
2023/06/06 08:10:43;;;;;;;8.50;1.40;;;;;;;24.87;37.00;99751.70;104904;1269;59347;-45
2023/06/06 08:13:11;;;;;;;5.50;1.30;;;;;;;25.17;36.06;99686.80;104918;1264;60076;-48
2023/06/06 08:15:39;;;;;;;14.70;2.00;;;;;;;25.20;34.81;99425.15;104889;1270;70282;-45
2023/06/06 08:18:06;;;;;;;6.20;1.20;;;;;;;25.32;35.43;99529.94;104911;1269;65927;-45
2023/06/06 08:20:34;;;;;;;7.00;1.30;;;;;;;25.50;34.32;99366.69;104906;1267;71812;-45
2023/06/06 08:23:02;;;;;;;7.90;1.60;;;;;;;25.66;33.53;99282.69;104987;1270;204815;-45
2023/06/06 08:25:31;;;;;;;5.20;1.40;;;;;;;25.83;34.57;99374.45;105176;1267;59296;-46
2023/06/06 08:27:59;;;;;;;6.80;1.10;;;;;;;26.05;34.08;99301.21;105213;1263;72273;-44
2023/06/06 08:30:27;;;;;;;6.60;1.40;;;;;;;26.19;33.21;99220.10;105180;1266;65128;-44
2023/06/06 08:32:55;;;;;;;10.20;1.40;;;;;;;26.12;33.24;99182.09;105203;1267;71698;-44
2023/06/06 08:35:24;;;;;;;4.10;1.10;;;;;;;26.01;33.99;99262.05;105203;1263;59852;-43
2023/06/06 08:37:52;;;;;;;3.40;1.20;;;;;;;26.00;34.04;99260.17;105207;1261;60010;-44
2023/06/06 08:40:20;;;;;;;2.50;1.40;;;;;;;26.02;32.45;99087.83;105180;1261;71864;-44
2023/06/06 08:42:52;;;;;;;2.40;1.10;;;;;;;25.91;32.07;98991.61;105178;1263;63677;-44
2023/06/06 08:45:20;;;;;;;6.00;1.10;;;;;;;25.90;32.15;98990.38;105824;1259;71365;-44
2023/06/06 08:47:49;;;;;;;2.70;1.20;;;;;;;25.92;32.45;99057.19;105682;1260;59714;-44
2023/06/06 08:50:17;;;;;;;7.40;1.60;;;;;;;26.04;32.17;99037.48;105646;1254;59601;-43
2023/06/06 08:52:44;;;;;;;6.30;1.40;;;;;;;25.97;31.47;98942.58;105666;1260;72194;-43
2023/06/06 08:55:12;;;;;;;1.80;1.20;;;;;;;25.87;32.87;99071.92;105629;1254;64369;-44
2023/06/06 08:57:43;;;;;;;6.70;1.40;;;;;;;26.01;32.76;99108.10;105620;1261;71785;-43
2023/06/06 09:00:21;;;;;;;;;;;;;;;26.12;32.04;98989.64;105704;1260;59731;-44
2023/06/06 09:02:54;;;;;;;5.70;1.30;;;;;;;26.09;31.50;98933.53;105727;1259;59649;-44
2023/06/06 09:05:23;;;;;;;3.50;1.30;;;;;;;26.12;31.13;98869.20;105664;1254;71790;-44
2023/06/06 09:07:52;;;;;;;5.20;1.30;;;;;;;26.10;31.05;98838.54;105607;1254;63932;-45
2023/06/06 09:10:21;;;;;;;9.00;1.40;;;;;;;25.92;31.03;98830.94;105655;1261;71426;-44
2023/06/06 09:12:49;;;;;;;7.70;1.40;;;;;;;26.01;32.10;98982.40;105621;1260;59666;-44
2023/06/06 09:15:17;;;;;;;3.20;1.30;;;;;;;26.37;31.87;98963.09;105676;1254;59988;-44
2023/06/06 09:17:45;;;;;;;4.40;1.30;;;;;;;26.66;31.99;99021.86;105645;1254;71784;-44
2023/06/06 09:20:15;;;;;;;7.90;1.20;;;;;;;26.82;31.65;98967.65;105654;1260;63906;-45
2023/06/06 09:22:45;;;;;;;5.90;1.40;;;;;;;26.92;30.57;98818.12;105636;1254;72719;-44
2023/06/06 09:25:23;;;;;;;3.30;1.90;;;;;;;26.93;30.39;98735.54;105633;1254;60118;-44
2023/06/06 09:28:18;;;;;;;7.00;1.30;;;;;;;27.04;30.23;98691.56;105646;1260;59580;-44
2023/06/06 09:30:45;;;;;;;3.70;1.50;;;;;;;27.25;30.48;98685.77;105614;1255;71811;-44
2023/06/06 09:33:14;;;;;;;8.60;1.30;;;;;;;27.53;30.91;98740.45;105612;1258;65155;-44
2023/06/06 09:35:42;;;;;;;1.40;1.10;;;;;;;27.86;29.77;98591.17;105635;1260;71384;-44
2023/06/06 09:38:17;;;;;;;6.00;1.30;;;;;;;27.74;28.42;98391.18;105644;1256;59711;-44
2023/06/06 09:40:50;;;;;;;2.70;1.00;;;;;;;27.16;29.44;98444.05;105613;1260;59513;-44
2023/06/06 09:43:30;;;;;;;7.60;1.20;;;;;;;26.72;30.18;98575.65;105616;1254;73042;-44
2023/06/06 09:45:58;;;;;;;12.40;1.50;;;;;;;26.65;30.32;98651.92;105653;1254;65145;-44
2023/06/06 09:48:27;;;;;;;23.80;1.40;;;;;;;26.73;30.29;98632.83;105630;1260;72714;-44
2023/06/06 09:50:55;;;;;;;2.30;1.40;;;;;;;27.01;30.52;98655.54;105625;1261;59669;-44
2023/06/06 09:53:28;;;;;;;5.00;1.30;;;;;;;27.44;31.34;98800.89;105618;1260;59925;-44
2023/06/06 09:55:58;;;;;;;2.90;1.30;;;;;;;27.92;30.05;98685.65;105654;1254;71857;-44
2023/06/06 09:58:26;;;;;;;8.00;1.30;;;;;;;27.92;28.71;98460.40;105656;1260;65305;-44
2023/06/06 10:00:57;;;;;;;6.70;1.00;;;;;;;27.40;29.46;98533.20;105539;1263;71498;-44
2023/06/06 10:03:26;;;;;;;37.00;2.40;;;;;;;27.11;30.20;98594.91;105628;1258;59676;-44
2023/06/06 10:05:54;;;;;;;3.20;1.10;;;;;;;27.23;30.62;98718.82;105633;1260;59564;-44
2023/06/06 10:08:22;;;;;;;4.60;1.30;;;;;;;27.35;29.26;98551.05;105640;1254;72221;-44
2023/06/06 10:10:50;;;;;;;8.80;1.40;;;;;;;27.35;29.01;98503.59;105665;1254;63607;-45
2023/06/06 10:13:22;;;;;;;3.40;1.50;;;;;;;27.29;29.29;98479.29;105618;1260;71840;-45
2023/06/06 10:15:50;;;;;;;3.20;1.40;;;;;;;27.42;29.57;98560.14;105667;1260;59727;-45
2023/06/06 10:18:18;;;;;;;8.10;1.50;;;;;;;27.58;29.45;98568.33;105564;1262;59634;-45
2023/06/06 10:20:46;;;;;;;2.20;1.20;;;;;;;27.64;28.41;98436.23;105690;1254;71925;-45
2023/06/06 10:23:14;;;;;;;7.70;1.50;;;;;;;27.72;28.31;98385.72;105637;1261;64096;-45
2023/06/06 10:25:42;;;;;;;23.60;3.50;;;;;;;27.83;28.45;98384.38;105567;1263;71457;-44
2023/06/06 10:28:31;;;;;;;3.60;1.30;;;;;;;27.87;28.64;98398.72;105579;1262;59713;-45
2023/06/06 10:31:05;;;;;;;7.50;2.00;;;;;;;27.88;28.12;98351.73;105638;1256;59660;-44
2023/06/06 10:33:46;;;;;;;4.30;1.30;;;;;;;27.67;27.46;98264.76;105588;1254;72843;-44
2023/06/06 10:36:17;;;;;;;4.60;1.20;;;;;;;27.26;27.73;98268.34;105599;1255;65161;-44
2023/06/06 10:39:19;;;;;;;4.90;1.00;;;;;;;26.88;29.31;98432.54;105636;1254;72632;-45
2023/06/06 10:41:55;;;;;;;13.50;1.40;;;;;;;26.90;29.20;98481.48;105583;1256;59615;-45
2023/06/06 10:44:26;;;;;;;3.40;1.10;;;;;;;27.15;27.85;98341.02;105604;1257;60541;-44
2023/06/06 10:47:20;;;;;;;4.30;1.30;;;;;;;27.18;29.16;98446.30;105666;1254;72106;-44
2023/06/06 10:50:07;;;;;;;5.60;1.50;;;;;;;27.66;30.24;98661.76;105659;1254;64789;-45
2023/06/06 10:52:50;;;;;;;9.00;1.40;;;;;;;28.09;27.57;98351.98;105596;1260;71518;-44
2023/06/06 10:55:20;;;;;;;2.10;1.00;;;;;;;28.19;27.46;98282.02;105540;1256;59695;-45
2023/06/06 10:58:06;;;;;;;1.70;1.60;;;;;;;28.17;27.40;98276.83;105319;1254;60080;-47
2023/06/06 11:00:44;;;;;;;2.50;1.20;;;;;;;28.28;27.38;98271.16;105582;1254;71743;-46
2023/06/06 11:03:19;;;;;;;12.90;1.50;;;;;;;28.47;27.72;98270.84;105619;1254;64051;-45
2023/06/06 11:06:06;;;;;;;5.90;1.10;;;;;;;28.90;27.81;98294.90;105619;1257;71376;-45
2023/06/06 11:08:56;;;;;;;3.00;1.20;;;;;;;29.03;26.16;98060.17;105624;1260;60107;-45
2023/06/06 11:11:27;;;;;;;3.50;1.30;;;;;;;29.04;27.51;98213.77;105686;1260;59556;-45
2023/06/06 11:14:02;;;;;;;3.30;1.10;;;;;;;28.93;26.15;98046.14;105570;1254;71820;-46
2023/06/06 11:16:39;;;;;;;2.70;1.10;;;;;;;28.50;26.04;98013.69;105581;1260;64040;-45
2023/06/06 11:19:08;;;;;;;1.20;1.10;;;;;;;28.18;26.59;98048.65;105579;1260;71459;-45
2023/06/06 11:21:36;;;;;;;4.40;1.20;;;;;;;27.94;26.85;98092.11;105623;1256;60016;-44
2023/06/06 11:24:05;;;;;;;6.50;1.10;;;;;;;27.68;27.19;98165.61;105938;1253;59611;-44
2023/06/06 11:26:34;;;;;;;3.50;1.60;;;;;;;27.58;27.40;98189.73;105928;1256;72990;-44
2023/06/06 11:29:02;;;;;;;1.80;1.10;;;;;;;27.41;27.75;98236.77;105938;1251;64350;-45
2023/06/06 11:31:31;;;;;;;6.50;1.30;;;;;;;27.15;28.36;98328.89;105723;1259;73138;-48
2023/06/06 11:34:09;;;;;;;4.10;1.20;;;;;;;26.94;28.31;98354.96;105777;1253;59794;-46